Terminal Aerodrome Forecast
Issued by NWS Denver/Boulder, CO

Home | Current Version | Previous Version | Text Only | Print | Product List | Glossary On
Versions: 1 2 3 4 5 6 7 8 9 10 11 12 13 14 15 16 17 18 19 20 21 22 23 24 25 26 27 28 29 30 31 32 33 34 35 36 37 38 39 40 41 42 43 44 45 46 47 48 49 50
000
FTUS45 KBOU 030422 AAC
TAFDEN
TAF AMD
KDEN 030422Z 0304/0406 29015KT 5SM HZ FEW150 BKN200
     FM030515 23012KT P6SM SCT120 BKN180
     FM031100 02015G22KT P6SM SCT020 SCT120 BKN200
     FM031400 02013KT P6SM VCSH SCT008 OVC020
      TEMPO 0315/0319 3SM -SN OVC008
     FM032200 03014G22KT 4SM -SN BR SCT008 OVC020
     FM040100 04012KT 1SM -SN BR SCT005 BKN008 OVC020=

USA.gov is the U.S. government's official web portal to all federal, state and local government web resources and services.